Terminal Aerodrome Forecast
Issued by NWS

Home | Current Version | Previous Version | Text Only | Print | Product List | Glossary On
Versions: 1 2 3 4 5 6 7 8 9 10 11 12
000
FTUS42 KMLB 222341
TAFSFB
TAF
KSFB 222341Z 2300/2324 VRB04KT P6SM VCTS SCT060CB SCT070
      TEMPO 2300/2301 3SM TSRA BKN035CB BKN050
     FM230200 17005KT P6SM SCT080 BKN250
     FM231400 21013G20KT P6SM SCT050 BKN250=

USA.gov is the U.S. government's official web portal to all federal, state and local government web resources and services.